Time;durP1;ratioP1;P1;durP2;ratioP2;P2;SDS_P1;SDS_P2;PMS_P1;PMS_P2;Temp;Humidity;BMP_temperature;BMP_pressure;BME280_temperature;BME280_humidity;BME280_pressure;Samples;Min_cycle;Max_cycle;Signal;HPM_P1;HPM_P2
2022/02/26 00:01:16;;;;;;;2.50;2.30;;;9.10;59.90;;;;;;5118543;28;20234;-63
2022/02/26 00:03:48;;;;;;;3.10;2.80;;;9.10;59.90;;;;;;5122193;28;20458;-62
2022/02/26 00:06:19;;;;;;;3.80;2.85;;;9.00;60.40;;;;;;5122644;28;20208;-62
2022/02/26 00:08:52;;;;;;;3.85;2.88;;;9.00;60.40;;;;;;5121993;28;20184;-63
2022/02/26 00:11:23;;;;;;;5.45;2.65;;;9.00;60.00;;;;;;5119765;28;20230;-62
2022/02/26 00:13:54;;;;;;;3.00;2.78;;;9.00;60.10;;;;;;5122052;28;20218;-63
2022/02/26 00:16:25;;;;;;;3.40;3.00;;;8.90;60.70;;;;;;5123777;28;20242;-62
2022/02/26 00:19:04;;;;;;;3.15;2.75;;;8.90;61.10;;;;;;5121685;27;20210;-62
2022/02/26 00:21:35;;;;;;;3.60;3.30;;;8.80;60.80;;;;;;5116714;28;20204;-62
2022/02/26 00:24:10;;;;;;;5.43;2.80;;;8.80;61.60;;;;;;5122395;27;20287;-63
2022/02/26 00:26:43;;;;;;;3.33;3.05;;;8.70;61.20;;;;;;5124075;28;20219;-63
2022/02/26 00:29:14;;;;;;;3.88;2.85;;;8.60;62.10;;;;;;5122276;28;20199;-63
2022/02/26 00:31:45;;;;;;;3.65;3.00;;;8.60;62.50;;;;;;5123486;28;20287;-63
2022/02/26 00:34:24;;;;;;;3.10;2.90;;;8.50;62.40;;;;;;5122407;28;20208;-63
2022/02/26 00:36:55;;;;;;;4.07;3.00;;;8.40;62.80;;;;;;5123040;28;20204;-63
2022/02/26 00:39:28;;;;;;;3.53;2.50;;;8.30;63.60;;;;;;5122085;28;20200;-64
2022/02/26 00:41:59;;;;;;;3.70;3.00;;;8.30;63.80;;;;;;5121192;28;20270;-65
2022/02/26 00:44:34;;;;;;;3.90;3.25;;;8.20;64.40;;;;;;5122245;28;20207;-63
2022/02/26 00:47:06;;;;;;;3.20;2.90;;;8.10;64.20;;;;;;5122509;28;20260;-63
2022/02/26 00:49:50;;;;;;;3.38;3.08;;;8.10;64.80;;;;;;5122945;27;20208;-62
2022/02/26 00:52:22;;;;;;;3.55;2.70;;;8.10;65.00;;;;;;5122194;28;20296;-63
2022/02/26 00:54:56;;;;;;;3.10;2.88;;;8.00;64.50;;;;;;5122054;28;20259;-66
2022/02/26 00:57:27;;;;;;;3.42;2.72;;;7.90;65.10;;;;;;5120351;27;20224;-63
2022/02/26 00:59:58;;;;;;;3.05;2.75;;;8.00;65.10;;;;;;5122313;28;20234;-63
2022/02/26 01:02:29;;;;;;;3.78;3.28;;;7.80;64.70;;;;;;5122778;28;20263;-63
2022/02/26 01:05:04;;;;;;;3.47;3.00;;;7.80;66.00;;;;;;5117085;28;20292;-64
2022/02/26 01:07:34;;;;;;;4.22;2.50;;;7.70;66.80;;;;;;5123589;28;20306;-63
2022/02/26 01:10:09;;;;;;;4.00;2.90;;;7.70;67.20;;;;;;5122147;28;20196;-64
2022/02/26 01:12:40;;;;;;;3.00;2.80;;;7.70;67.40;;;;;;5120559;28;20219;-63
2022/02/26 01:15:14;;;;;;;2.95;2.75;;;7.70;68.60;;;;;;5117633;28;20227;-63
2022/02/26 01:17:45;;;;;;;3.35;3.05;;;7.70;68.10;;;;;;5116691;28;20271;-65
2022/02/26 01:20:19;;;;;;;3.47;3.13;;;7.70;70.50;;;;;;5120667;28;20226;-65
2022/02/26 01:22:50;;;;;;;3.05;2.80;;;7.70;67.90;;;;;;5116308;28;20208;-67
2022/02/26 01:25:32;;;;;;;3.58;3.20;;;7.60;67.40;;;;;;5118789;28;20222;-64
2022/02/26 01:28:03;;;;;;;3.00;2.70;;;7.50;69.90;;;;;;5125306;28;20259;-63
2022/02/26 01:30:34;;;;;;;3.25;2.95;;;7.40;69.40;;;;;;5122845;28;20206;-64
2022/02/26 01:33:05;;;;;;;3.22;2.60;;;7.40;68.70;;;;;;5119474;28;20288;-73
2022/02/26 01:35:36;;;;;;;2.70;2.47;;;7.30;68.50;;;;;;5121014;28;20246;-64
2022/02/26 01:38:07;;;;;;;2.60;2.40;;;7.20;69.00;;;;;;5122571;28;20238;-67
2022/02/26 01:40:54;;;;;;;2.50;2.33;;;7.20;69.80;;;;;;5121093;28;20275;-67
2022/02/26 01:43:26;;;;;;;2.50;2.30;;;7.00;70.40;;;;;;5121260;28;20231;-65
2022/02/26 01:45:57;;;;;;;2.70;2.47;;;6.90;70.70;;;;;;5122348;28;20295;-65
2022/02/26 01:48:29;;;;;;;4.53;3.15;;;6.90;70.50;;;;;;5122491;28;20556;-64
2022/02/26 01:51:00;;;;;;;3.22;2.90;;;6.80;71.40;;;;;;5122157;28;20285;-65
2022/02/26 01:53:31;;;;;;;4.10;2.75;;;6.70;71.50;;;;;;5120904;28;20220;-71
2022/02/26 01:56:06;;;;;;;3.28;2.70;;;6.70;72.20;;;;;;5124602;28;20197;-71
2022/02/26 01:58:44;;;;;;;3.55;2.67;;;6.60;72.00;;;;;;5121985;28;20196;-70
2022/02/26 02:01:23;;;;;;;2.90;2.70;;;6.60;72.80;;;;;;5126798;28;20184;-69
2022/02/26 02:03:54;;;;;;;3.55;2.90;;;6.60;72.60;;;;;;5121657;28;20222;-69
2022/02/26 02:06:25;;;;;;;3.35;3.05;;;6.50;72.60;;;;;;5122172;28;20237;-71
2022/02/26 02:08:56;;;;;;;4.22;3.00;;;6.50;72.80;;;;;;5122222;28;20221;-70
2022/02/26 02:11:30;;;;;;;4.72;2.75;;;6.40;73.70;;;;;;5122167;28;20215;-74
2022/02/26 02:14:01;;;;;;;2.70;2.50;;;6.40;73.50;;;;;;5122264;28;20200;-76
2022/02/26 02:16:36;;;;;;;2.92;2.72;;;6.40;73.50;;;;;;5122242;28;20199;-68
2022/02/26 02:19:08;;;;;;;2.55;2.35;;;6.30;73.30;;;;;;5122497;28;20230;-68
2022/02/26 02:21:40;;;;;;;3.47;3.17;;;6.30;73.80;;;;;;5121892;28;20256;-69
2022/02/26 02:24:15;;;;;;;5.82;3.13;;;6.30;74.20;;;;;;5121680;28;20212;-63
2022/02/26 02:26:47;;;;;;;4.60;2.55;;;6.20;73.90;;;;;;5120832;28;20542;-71
2022/02/26 02:29:18;;;;;;;3.75;2.80;;;6.30;73.60;;;;;;5124215;28;20261;-72
2022/02/26 02:31:49;;;;;;;2.80;2.60;;;6.20;73.60;;;;;;5125250;28;20210;-71
2022/02/26 02:34:20;;;;;;;3.10;2.80;;;6.20;73.30;;;;;;5125010;28;20318;-71
2022/02/26 02:36:54;;;;;;;3.15;2.85;;;6.20;74.10;;;;;;5133357;27;20234;-66
2022/02/26 02:39:27;;;;;;;5.40;3.10;;;6.10;73.60;;;;;;5124878;28;20236;-66
2022/02/26 02:41:58;;;;;;;7.82;3.25;;;6.10;73.40;;;;;;5122988;28;20276;-72
2022/02/26 02:44:29;;;;;;;4.80;2.83;;;6.10;73.70;;;;;;5128540;27;20202;-66
2022/02/26 02:47:08;;;;;;;3.13;2.90;;;6.00;74.40;;;;;;5125135;28;20222;-67
2022/02/26 02:49:39;;;;;;;3.28;2.97;;;6.00;75.30;;;;;;5125532;28;20231;-66
2022/02/26 02:52:12;;;;;;;3.05;2.40;;;6.00;75.10;;;;;;5124841;27;20295;-66
2022/02/26 02:54:45;;;;;;;3.30;3.00;;;6.00;74.10;;;;;;5122948;28;20228;-64
2022/02/26 02:57:20;;;;;;;2.63;2.25;;;5.90;74.30;;;;;;5125563;27;20231;-65
2022/02/26 02:59:51;;;;;;;2.60;2.35;;;5.90;73.90;;;;;;5120207;28;20205;-65
2022/02/26 03:02:29;;;;;;;3.60;2.95;;;5.80;74.00;;;;;;5125445;27;20338;-67
2022/02/26 03:05:08;;;;;;;2.45;2.25;;;5.80;74.50;;;;;;5121943;28;20195;-63
2022/02/26 03:08:04;;;;;;;3.25;2.72;;;5.80;73.90;;;;;;5124642;28;20196;-63
2022/02/26 03:10:37;;;;;;;2.47;2.28;;;5.80;74.00;;;;;;5124588;27;20203;-62
2022/02/26 03:13:34;;;;;;;2.50;2.30;;;5.70;74.30;;;;;;5122832;28;20319;-64
2022/02/26 03:16:05;;;;;;;2.63;2.42;;;5.70;73.80;;;;;;5122671;28;20208;-63
2022/02/26 03:18:36;;;;;;;4.05;2.88;;;5.70;74.40;;;;;;5123617;28;20200;-63
2022/02/26 03:21:07;;;;;;;3.15;2.67;;;5.70;74.00;;;;;;5123513;28;20550;-63
2022/02/26 03:23:38;;;;;;;2.97;2.67;;;5.70;74.60;;;;;;5123783;28;20217;-65
2022/02/26 03:26:18;;;;;;;3.30;2.40;;;5.60;74.40;;;;;;5122144;28;20272;-64
2022/02/26 03:28:53;;;;;;;3.08;2.13;;;5.60;73.30;;;;;;5123838;28;20890;-63
2022/02/26 03:31:27;;;;;;;3.08;2.45;;;5.60;73.30;;;;;;5122321;28;20196;-62
2022/02/26 03:33:58;;;;;;;2.92;2.65;;;5.60;73.90;;;;;;5122834;28;20224;-62
2022/02/26 03:36:33;;;;;;;2.50;2.30;;;5.50;74.20;;;;;;5121944;28;20263;-61
2022/02/26 03:39:11;;;;;;;2.40;2.20;;;5.50;74.70;;;;;;5123294;28;20200;-62
2022/02/26 03:41:44;;;;;;;2.35;2.15;;;5.50;74.40;;;;;;5122683;28;20215;-65
2022/02/26 03:44:15;;;;;;;6.45;2.50;;;5.40;74.60;;;;;;5121472;28;20210;-62
2022/02/26 03:46:46;;;;;;;1.95;1.70;;;5.30;74.40;;;;;;5123095;28;21092;-63
2022/02/26 03:49:17;;;;;;;2.78;2.40;;;5.30;74.20;;;;;;5122673;28;20330;-64
2022/02/26 03:51:48;;;;;;;2.20;2.00;;;5.30;74.40;;;;;;5122950;27;20199;-63
2022/02/26 03:54:20;;;;;;;2.40;1.92;;;5.30;74.50;;;;;;5123901;27;20302;-63
2022/02/26 03:56:53;;;;;;;2.40;2.20;;;5.30;74.40;;;;;;5121976;28;20282;-63
2022/02/26 03:59:24;;;;;;;3.00;2.55;;;5.30;73.60;;;;;;5119701;28;20199;-64
2022/02/26 04:01:55;;;;;;;2.28;2.08;;;5.20;73.90;;;;;;5120750;27;20199;-63
2022/02/26 04:04:26;;;;;;;3.05;2.60;;;5.20;73.70;;;;;;5122660;28;20196;-63
2022/02/26 04:06:57;;;;;;;2.90;2.65;;;5.20;73.70;;;;;;5121765;28;20271;-62
2022/02/26 04:09:28;;;;;;;2.30;2.10;;;5.20;73.20;;;;;;5122846;28;20303;-63
2022/02/26 04:12:01;;;;;;;2.53;2.25;;;5.10;73.10;;;;;;5120678;27;20193;-62
2022/02/26 04:14:32;;;;;;;2.08;1.88;;;5.10;72.80;;;;;;5123619;28;20215;-63
2022/02/26 04:17:03;;;;;;;2.95;2.65;;;5.10;72.70;;;;;;5120699;28;20248;-63
2022/02/26 04:19:34;;;;;;;2.67;2.30;;;5.00;73.10;;;;;;5122798;28;20207;-63
2022/02/26 04:22:06;;;;;;;2.50;2.30;;;5.00;73.30;;;;;;5108435;27;20204;-63
2022/02/26 04:24:36;;;;;;;2.00;1.90;;;5.00;72.70;;;;;;5125236;27;20264;-63
2022/02/26 04:27:09;;;;;;;3.88;2.22;;;5.00;72.90;;;;;;5122429;27;20202;-63
2022/02/26 04:29:40;;;;;;;2.88;2.20;;;5.00;72.90;;;;;;5123402;28;20246;-63
2022/02/26 04:32:31;;;;;;;3.40;2.30;;;4.90;72.60;;;;;;5121919;27;20192;-62
2022/02/26 04:35:02;;;;;;;4.20;2.25;;;4.90;73.00;;;;;;5124737;27;20199;-63
2022/02/26 04:37:33;;;;;;;3.08;2.17;;;4.90;72.60;;;;;;5122264;27;20206;-63
2022/02/26 04:40:04;;;;;;;2.67;2.42;;;4.90;72.80;;;;;;5123126;28;20222;-63
2022/02/26 04:42:37;;;;;;;4.22;2.17;;;4.90;72.70;;;;;;5121267;28;20199;-63
2022/02/26 04:45:09;;;;;;;4.25;2.00;;;4.90;73.40;;;;;;5123292;28;20251;-64
2022/02/26 04:47:41;;;;;;;3.47;3.28;;;4.80;72.60;;;;;;5121434;28;20325;-63
2022/02/26 04:50:13;;;;;;;2.08;1.98;;;4.80;72.90;;;;;;5122636;28;20221;-63
2022/02/26 04:52:45;;;;;;;2.47;2.28;;;4.80;72.90;;;;;;5121632;28;20206;-64
2022/02/26 04:55:16;;;;;;;3.10;2.40;;;4.80;72.70;;;;;;5122542;28;20218;-63
2022/02/26 04:57:48;;;;;;;5.15;2.42;;;4.70;73.00;;;;;;5121140;28;20224;-63
2022/02/26 05:00:20;;;;;;;2.88;2.60;;;4.70;73.40;;;;;;5123398;28;20199;-63
2022/02/26 05:02:51;;;;;;;2.70;2.40;;;4.70;72.50;;;;;;5122872;28;20199;-63
2022/02/26 05:05:22;;;;;;;2.75;2.47;;;4.70;73.20;;;;;;5121812;28;20286;-63
2022/02/26 05:07:53;;;;;;;3.35;2.33;;;4.70;73.20;;;;;;5121980;28;20210;-63
2022/02/26 05:10:25;;;;;;;3.17;2.53;;;4.70;72.80;;;;;;5122676;28;20200;-63
2022/02/26 05:12:57;;;;;;;2.00;1.90;;;4.70;72.80;;;;;;5121520;28;20184;-63
2022/02/26 05:15:28;;;;;;;3.17;2.60;;;4.60;72.90;;;;;;5122589;28;20279;-63
2022/02/26 05:17:59;;;;;;;2.35;2.15;;;4.60;73.10;;;;;;5119352;28;20225;-63
2022/02/26 05:20:31;;;;;;;3.20;2.30;;;4.60;72.50;;;;;;5122546;28;20574;-62
2022/02/26 05:23:02;;;;;;;3.38;3.08;;;4.50;73.30;;;;;;5120394;28;20199;-62
2022/02/26 05:25:32;;;;;;;3.42;2.65;;;4.60;72.90;;;;;;5122235;28;20258;-62
2022/02/26 05:28:05;;;;;;;2.67;2.25;;;4.50;73.10;;;;;;5119415;28;20210;-62
2022/02/26 05:30:37;;;;;;;2.60;2.40;;;4.50;73.20;;;;;;5122947;28;20619;-62
2022/02/26 05:33:10;;;;;;;4.25;2.63;;;4.50;73.80;;;;;;5122279;28;20223;-62
2022/02/26 05:35:41;;;;;;;3.90;2.80;;;4.50;74.50;;;;;;5119921;28;20199;-63
2022/02/26 05:38:12;;;;;;;3.13;2.83;;;4.40;74.00;;;;;;5121097;28;20303;-62
2022/02/26 05:40:46;;;;;;;3.78;2.88;;;4.40;73.30;;;;;;5122172;28;20192;-62
2022/02/26 05:43:19;;;;;;;3.53;3.00;;;4.40;73.20;;;;;;5119641;28;20293;-62
2022/02/26 05:45:52;;;;;;;3.85;2.80;;;4.40;73.90;;;;;;5122172;28;20226;-63
2022/02/26 05:48:23;;;;;;;2.90;2.70;;;4.40;74.50;;;;;;5107201;28;20674;-62
2022/02/26 05:50:56;;;;;;;3.22;2.88;;;4.30;75.60;;;;;;5122710;28;20200;-62
2022/02/26 05:53:30;;;;;;;4.18;3.03;;;4.30;74.20;;;;;;5121369;28;20204;-62
2022/02/26 05:56:04;;;;;;;6.55;3.33;;;4.30;73.30;;;;;;5114831;28;20640;-62
2022/02/26 05:58:36;;;;;;;2.95;2.70;;;4.30;73.00;;;;;;5120938;28;20264;-62
2022/02/26 06:01:13;;;;;;;3.08;2.78;;;4.30;73.50;;;;;;5124208;27;20612;-62
2022/02/26 06:03:44;;;;;;;3.28;2.97;;;4.30;73.60;;;;;;5124353;28;20208;-60
2022/02/26 06:06:21;;;;;;;3.33;3.03;;;4.30;73.50;;;;;;5125711;28;20204;-63
2022/02/26 06:08:51;;;;;;;3.20;2.90;;;4.20;73.70;;;;;;5125340;28;20339;-62
2022/02/26 06:11:22;;;;;;;3.80;2.97;;;4.30;73.50;;;;;;5125462;27;20550;-62
2022/02/26 06:13:55;;;;;;;3.40;3.08;;;4.20;73.70;;;;;;5123056;28;20222;-62
2022/02/26 06:16:31;;;;;;;3.58;2.70;;;4.20;73.90;;;;;;5124523;27;20191;-62
2022/02/26 06:19:02;;;;;;;3.70;2.97;;;4.20;73.00;;;;;;5125726;27;20312;-62
2022/02/26 06:21:39;;;;;;;3.45;2.70;;;4.20;73.40;;;;;;5120765;27;20239;-63
2022/02/26 06:24:10;;;;;;;4.15;3.05;;;4.20;73.80;;;;;;5123130;27;20206;-62
2022/02/26 06:26:48;;;;;;;5.47;2.97;;;4.20;74.10;;;;;;5122717;27;20200;-62
2022/02/26 06:29:21;;;;;;;2.92;2.72;;;4.20;74.70;;;;;;5120773;27;20294;-62
2022/02/26 06:31:54;;;;;;;6.07;3.42;;;4.20;74.40;;;;;;5120280;28;20322;-62
2022/02/26 06:34:28;;;;;;;4.35;2.92;;;4.10;75.50;;;;;;5122760;28;20216;-62
2022/02/26 06:37:06;;;;;;;3.58;3.28;;;4.10;74.40;;;;;;5115833;28;20219;-62
2022/02/26 06:39:37;;;;;;;4.15;3.40;;;4.20;75.10;;;;;;5119553;28;20199;-62
2022/02/26 06:42:11;;;;;;;2.85;2.65;;;4.20;73.80;;;;;;5121218;28;20215;-62
2022/02/26 06:44:44;;;;;;;3.90;3.03;;;4.20;74.10;;;;;;5120698;28;20206;-62
2022/02/26 06:47:15;;;;;;;5.05;3.78;;;4.20;74.30;;;;;;5121526;28;21902;-62
2022/02/26 06:49:47;;;;;;;4.68;2.95;;;4.10;75.00;;;;;;5126267;28;20255;-62
2022/02/26 06:52:18;;;;;;;3.15;2.88;;;4.10;74.90;;;;;;5124305;28;20284;-62
2022/02/26 06:54:49;;;;;;;5.25;3.78;;;4.10;74.80;;;;;;5123670;27;20341;-62
2022/02/26 06:57:40;;;;;;;3.70;3.40;;;4.10;75.10;;;;;;5121997;28;20224;-62
2022/02/26 07:00:14;;;;;;;4.57;3.58;;;4.10;75.00;;;;;;5123033;28;20203;-62
2022/02/26 07:02:45;;;;;;;3.95;3.65;;;4.10;75.00;;;;;;5120764;28;20203;-61
2022/02/26 07:05:17;;;;;;;4.95;3.38;;;4.10;75.70;;;;;;5121268;28;20237;-62
2022/02/26 07:07:48;;;;;;;3.83;2.80;;;4.10;76.00;;;;;;5124714;28;20296;-62
2022/02/26 07:10:19;;;;;;;6.10;3.40;;;4.10;76.30;;;;;;5121888;28;20234;-62
2022/02/26 07:12:50;;;;;;;4.78;3.42;;;4.10;75.00;;;;;;5122597;28;20263;-62
2022/02/26 07:15:23;;;;;;;4.60;3.42;;;4.10;76.10;;;;;;5123359;28;20223;-62
2022/02/26 07:17:54;;;;;;;5.43;3.72;;;4.10;75.70;;;;;;5123382;28;20200;-62
2022/02/26 07:20:25;;;;;;;4.50;4.10;;;4.10;75.50;;;;;;5124785;28;20255;-61
2022/02/26 07:22:56;;;;;;;3.63;3.33;;;4.10;75.50;;;;;;5123873;28;20192;-62
2022/02/26 07:25:27;;;;;;;4.40;3.15;;;4.00;77.00;;;;;;5123357;28;20256;-63
2022/02/26 07:28:01;;;;;;;3.60;3.30;;;4.00;76.00;;;;;;5123191;28;20249;-62
2022/02/26 07:30:34;;;;;;;4.60;3.47;;;4.00;76.10;;;;;;5123791;27;20215;-62
2022/02/26 07:33:05;;;;;;;3.53;3.05;;;4.00;76.90;;;;;;5124469;28;20188;-63
2022/02/26 07:35:36;;;;;;;4.35;3.17;;;3.90;77.40;;;;;;5124515;28;20208;-62
2022/02/26 07:38:08;;;;;;;3.42;3.10;;;3.90;78.00;;;;;;5123331;28;20204;-63
2022/02/26 07:40:41;;;;;;;3.45;2.88;;;3.90;77.50;;;;;;5124314;28;20200;-63
2022/02/26 07:43:12;;;;;;;3.70;3.17;;;3.90;78.20;;;;;;5122950;28;20200;-63
2022/02/26 07:45:45;;;;;;;5.45;3.30;;;3.90;77.60;;;;;;5123570;28;20196;-62
2022/02/26 07:48:16;;;;;;;5.15;3.75;;;3.90;78.30;;;;;;5123111;28;20211;-63
2022/02/26 07:50:49;;;;;;;5.28;3.60;;;3.90;78.70;;;;;;5124151;28;20870;-62
2022/02/26 07:53:21;;;;;;;5.13;3.40;;;3.80;79.30;;;;;;5123144;28;20200;-62
2022/02/26 07:55:52;;;;;;;3.78;3.47;;;3.80;78.70;;;;;;5121727;28;20219;-63
2022/02/26 07:58:25;;;;;;;5.43;3.38;;;3.80;78.00;;;;;;5122568;28;20196;-62
2022/02/26 08:00:58;;;;;;;2.95;2.75;;;3.80;78.20;;;;;;5122244;28;20278;-62
2022/02/26 08:03:29;;;;;;;4.30;3.08;;;3.80;78.70;;;;;;5121101;28;20191;-63
2022/02/26 08:06:00;;;;;;;4.25;3.10;;;3.80;78.30;;;;;;5123527;28;20490;-62
2022/02/26 08:08:31;;;;;;;3.42;3.20;;;3.80;78.90;;;;;;5117898;28;20257;-62
2022/02/26 08:11:02;;;;;;;3.47;3.17;;;3.80;78.30;;;;;;5122082;28;20232;-62
2022/02/26 08:13:33;;;;;;;3.63;3.33;;;3.80;77.80;;;;;;5122243;28;20200;-63
2022/02/26 08:16:10;;;;;;;5.97;3.33;;;3.70;78.00;;;;;;5122090;28;20249;-62
2022/02/26 08:18:41;;;;;;;3.70;3.35;;;3.60;78.60;;;;;;5108267;28;20184;-62
2022/02/26 08:21:12;;;;;;;4.35;3.70;;;3.60;78.90;;;;;;5114289;28;20200;-62
2022/02/26 08:23:46;;;;;;;3.67;3.38;;;3.50;78.60;;;;;;5120632;28;20211;-62
2022/02/26 08:26:18;;;;;;;3.92;3.33;;;3.50;79.20;;;;;;5121455;28;20208;-62
2022/02/26 08:28:51;;;;;;;4.35;4.00;;;3.50;79.30;;;;;;5116790;28;20210;-62
2022/02/26 08:31:24;;;;;;;3.85;3.55;;;3.50;78.70;;;;;;5121799;28;20195;-62
2022/02/26 08:33:55;;;;;;;3.85;2.95;;;3.50;78.90;;;;;;5122639;28;20233;-63
2022/02/26 08:36:28;;;;;;;4.35;3.53;;;3.50;79.00;;;;;;5121795;28;20220;-62
2022/02/26 08:38:59;;;;;;;3.47;3.13;;;3.50;78.30;;;;;;5123067;28;20222;-62
2022/02/26 08:41:30;;;;;;;10.27;3.97;;;3.50;78.50;;;;;;5121574;28;20196;-62
2022/02/26 08:44:06;;;;;;;5.32;3.95;;;3.50;78.70;;;;;;5122355;28;20280;-62
2022/02/26 08:46:39;;;;;;;3.55;3.25;;;3.50;78.10;;;;;;5120534;28;20200;-62
2022/02/26 08:49:10;;;;;;;3.72;3.00;;;3.50;78.40;;;;;;5122091;28;20200;-62
2022/02/26 08:51:44;;;;;;;3.50;3.20;;;3.50;79.30;;;;;;5120269;28;20192;-62
2022/02/26 08:54:14;;;;;;;3.50;3.20;;;3.50;79.20;;;;;;5122832;28;20200;-62
2022/02/26 08:56:45;;;;;;;4.05;3.75;;;3.50;78.80;;;;;;5122466;28;20257;-62
2022/02/26 08:59:16;;;;;;;4.03;3.63;;;3.40;79.30;;;;;;5121937;28;20546;-62
2022/02/26 09:01:48;;;;;;;3.78;2.95;;;3.40;79.10;;;;;;5120677;28;20378;-62
2022/02/26 09:04:20;;;;;;;3.80;3.50;;;3.50;78.80;;;;;;5122283;28;20204;-62
2022/02/26 09:06:51;;;;;;;3.95;3.08;;;3.50;79.20;;;;;;5122493;28;20215;-62
2022/02/26 09:09:22;;;;;;;5.57;3.88;;;3.40;79.40;;;;;;5122130;28;20210;-62
2022/02/26 09:11:53;;;;;;;3.47;3.17;;;3.40;79.50;;;;;;5118908;28;20200;-62
2022/02/26 09:14:24;;;;;;;9.80;3.40;;;3.40;80.30;;;;;;5120549;28;20302;-62
2022/02/26 09:16:57;;;;;;;4.22;3.10;;;3.40;79.20;;;;;;5122239;28;20227;-63
2022/02/26 09:19:29;;;;;;;3.83;3.50;;;3.40;79.60;;;;;;5122285;28;20198;-62
2022/02/26 09:22:03;;;;;;;3.45;3.15;;;3.30;79.80;;;;;;5122382;28;20235;-62
2022/02/26 09:24:35;;;;;;;4.22;3.63;;;3.30;79.80;;;;;;5114639;28;20207;-62
2022/02/26 09:27:07;;;;;;;4.90;4.03;;;3.30;79.60;;;;;;5121570;28;20291;-62
2022/02/26 09:29:38;;;;;;;4.47;3.47;;;3.30;80.10;;;;;;5119104;28;20200;-62
2022/02/26 09:32:12;;;;;;;4.22;3.92;;;3.30;80.10;;;;;;5121571;28;20264;-62
2022/02/26 09:34:43;;;;;;;3.08;2.88;;;3.20;80.20;;;;;;5121681;28;20195;-62
2022/02/26 09:37:13;;;;;;;9.80;4.43;;;3.30;80.60;;;;;;5122643;28;20216;-62
2022/02/26 09:39:44;;;;;;;5.78;3.63;;;3.30;80.00;;;;;;5126045;28;20204;-62
2022/02/26 09:42:15;;;;;;;4.18;3.63;;;3.30;80.20;;;;;;5124106;28;20271;-62
2022/02/26 09:44:46;;;;;;;5.90;3.75;;;3.30;80.40;;;;;;5126187;28;20192;-62
2022/02/26 09:47:19;;;;;;;5.07;3.67;;;3.30;80.80;;;;;;5118497;28;20204;-62
2022/02/26 09:49:50;;;;;;;4.85;3.15;;;3.30;81.50;;;;;;5125803;28;20199;-63
2022/02/26 09:52:25;;;;;;;6.18;3.92;;;3.30;80.80;;;;;;5125853;28;20203;-62
2022/02/26 09:54:56;;;;;;;5.18;3.72;;;3.20;81.10;;;;;;5126406;28;20200;-62
2022/02/26 09:57:32;;;;;;;3.95;3.30;;;3.20;81.10;;;;;;5124427;28;20322;-63
2022/02/26 10:00:04;;;;;;;4.22;3.47;;;3.20;81.30;;;;;;5124599;28;20196;-62
2022/02/26 10:02:38;;;;;;;3.88;3.47;;;3.20;80.60;;;;;;5124691;28;20286;-62
2022/02/26 10:05:12;;;;;;;4.88;4.13;;;3.30;81.00;;;;;;5126142;28;20260;-62
2022/02/26 10:07:44;;;;;;;4.60;3.65;;;3.30;80.40;;;;;;5126095;28;20206;-62
2022/02/26 10:10:17;;;;;;;3.40;3.05;;;3.30;80.40;;;;;;5125885;28;20216;-62
2022/02/26 10:12:53;;;;;;;4.40;3.80;;;3.30;80.00;;;;;;5123888;28;20330;-63
2022/02/26 10:15:27;;;;;;;4.30;3.90;;;3.30;80.50;;;;;;5126356;28;20291;-62
2022/02/26 10:18:09;;;;;;;5.43;3.50;;;3.30;80.30;;;;;;5125624;28;20230;-62
2022/02/26 10:20:46;;;;;;;3.33;2.88;;;3.30;80.60;;;;;;5125350;28;20263;-62
2022/02/26 10:23:19;;;;;;;3.90;3.50;;;3.30;80.00;;;;;;5124683;28;20578;-62
2022/02/26 10:25:50;;;;;;;4.05;3.15;;;3.30;80.70;;;;;;5125477;28;20188;-62
2022/02/26 10:28:23;;;;;;;5.00;3.45;;;3.30;81.40;;;;;;5125042;28;20202;-62
2022/02/26 10:30:54;;;;;;;3.40;3.10;;;3.20;81.10;;;;;;5125679;28;20195;-62
2022/02/26 10:33:30;;;;;;;3.60;3.30;;;3.30;81.20;;;;;;5125372;28;20242;-62
2022/02/26 10:36:08;;;;;;;3.70;3.30;;;3.30;80.60;;;;;;5125494;28;20200;-62
2022/02/26 10:38:40;;;;;;;5.60;3.90;;;3.20;81.20;;;;;;5125295;28;20306;-62
2022/02/26 10:41:13;;;;;;;4.22;3.63;;;3.20;81.40;;;;;;5125602;28;20192;-62
2022/02/26 10:43:48;;;;;;;4.40;4.00;;;3.10;82.10;;;;;;5124505;28;20548;-62
2022/02/26 10:46:25;;;;;;;4.50;4.05;;;3.00;82.90;;;;;;5119678;28;20208;-62
2022/02/26 10:49:03;;;;;;;4.30;3.90;;;3.00;83.00;;;;;;5124166;28;20207;-62
2022/02/26 10:51:36;;;;;;;3.80;3.50;;;3.00;82.40;;;;;;5124857;28;20199;-62
2022/02/26 10:54:09;;;;;;;4.45;4.00;;;3.00;83.00;;;;;;5123871;28;20192;-62
2022/02/26 10:56:44;;;;;;;3.92;3.58;;;2.90;84.10;;;;;;5126318;28;20228;-62
2022/02/26 10:59:28;;;;;;;4.22;3.83;;;3.00;82.80;;;;;;5124828;28;20191;-62
2022/02/26 11:02:07;;;;;;;4.55;3.80;;;3.00;83.10;;;;;;5123389;28;20203;-62
2022/02/26 11:04:40;;;;;;;5.78;3.90;;;3.00;83.10;;;;;;5125644;28;20229;-62
2022/02/26 11:07:11;;;;;;;4.70;4.15;;;2.90;83.40;;;;;;5123518;28;20532;-62
2022/02/26 11:09:45;;;;;;;5.07;4.55;;;2.90;83.40;;;;;;5124722;28;20203;-62
2022/02/26 11:12:18;;;;;;;4.05;3.65;;;2.90;83.80;;;;;;5123102;28;20200;-62
2022/02/26 11:14:58;;;;;;;5.07;3.97;;;2.90;84.10;;;;;;5125412;28;20202;-62
2022/02/26 11:17:32;;;;;;;4.53;3.58;;;2.90;83.80;;;;;;5124748;28;20219;-62
2022/02/26 11:20:06;;;;;;;5.18;3.70;;;2.90;83.70;;;;;;5124901;28;20211;-61
2022/02/26 11:22:37;;;;;;;4.70;3.90;;;2.90;84.40;;;;;;5122000;28;20218;-61
2022/02/26 11:25:09;;;;;;;4.07;3.67;;;2.80;84.20;;;;;;5123886;28;20196;-61
2022/02/26 11:27:41;;;;;;;4.28;3.88;;;2.90;84.10;;;;;;5122677;28;20219;-61
2022/02/26 11:30:17;;;;;;;5.20;4.03;;;2.90;83.60;;;;;;5125192;28;20276;-61
2022/02/26 11:32:49;;;;;;;4.35;3.95;;;2.90;83.20;;;;;;5124764;28;20195;-61
2022/02/26 11:35:24;;;;;;;4.68;4.28;;;2.90;83.50;;;;;;5124983;28;20640;-61
2022/02/26 11:37:56;;;;;;;5.10;3.45;;;2.90;82.90;;;;;;5123804;28;20241;-61
2022/02/26 11:40:27;;;;;;;6.15;3.92;;;3.00;83.00;;;;;;5124233;28;20200;-62
2022/02/26 11:42:59;;;;;;;4.68;3.60;;;3.00;83.20;;;;;;5123762;28;20195;-61
2022/02/26 11:45:31;;;;;;;4.93;3.85;;;3.00;82.80;;;;;;5123796;28;20187;-61
2022/02/26 11:48:04;;;;;;;4.63;3.83;;;3.00;83.30;;;;;;5124227;28;20191;-61
2022/02/26 11:50:38;;;;;;;4.75;4.15;;;3.00;83.90;;;;;;5124108;28;20267;-61
2022/02/26 11:53:12;;;;;;;7.05;3.85;;;2.90;83.20;;;;;;5123071;28;20278;-63
2022/02/26 11:55:45;;;;;;;3.83;3.40;;;2.90;83.20;;;;;;5124103;28;20265;-60
2022/02/26 11:58:21;;;;;;;4.93;4.05;;;2.90;83.60;;;;;;5123355;28;20226;-61
2022/02/26 12:00:53;;;;;;;4.22;3.45;;;2.90;83.40;;;;;;5122912;28;20198;-61
2022/02/26 12:03:37;;;;;;;5.32;3.83;;;3.00;83.20;;;;;;5118992;28;20236;-61
2022/02/26 12:06:39;;;;;;;4.63;4.03;;;2.90;83.00;;;;;;5116159;28;20218;-61
2022/02/26 12:09:12;;;;;;;5.60;4.25;;;2.90;83.20;;;;;;5123070;28;20299;-61
2022/02/26 12:11:48;;;;;;;3.85;3.55;;;2.90;83.10;;;;;;5123103;28;20204;-61
2022/02/26 12:14:25;;;;;;;5.85;3.90;;;2.90;83.00;;;;;;5122309;28;20230;-61
2022/02/26 12:17:03;;;;;;;7.15;3.42;;;2.90;83.50;;;;;;5123122;28;20202;-61
2022/02/26 12:19:47;;;;;;;4.05;3.60;;;2.80;83.30;;;;;;5119667;28;20247;-61
2022/02/26 12:22:20;;;;;;;4.80;4.30;;;2.90;83.70;;;;;;5121691;28;20212;-61
2022/02/26 12:24:52;;;;;;;3.88;3.58;;;2.90;84.10;;;;;;5122611;28;20194;-61
2022/02/26 12:27:33;;;;;;;6.57;3.78;;;2.90;83.80;;;;;;5121809;28;20211;-61
2022/02/26 12:30:10;;;;;;;5.15;4.35;;;2.90;83.60;;;;;;5120321;28;20305;-61
2022/02/26 12:32:53;;;;;;;6.85;4.32;;;2.90;83.60;;;;;;5115557;28;20195;-61
2022/02/26 12:35:31;;;;;;;4.22;3.83;;;2.80;83.30;;;;;;5122462;28;20200;-61
2022/02/26 12:38:04;;;;;;;6.57;3.83;;;2.80;84.00;;;;;;5121876;28;20327;-60
2022/02/26 12:40:36;;;;;;;5.97;4.82;;;2.80;84.60;;;;;;5122444;28;20200;-62
2022/02/26 12:43:09;;;;;;;5.22;4.28;;;2.80;84.40;;;;;;5122240;28;20192;-61
2022/02/26 12:45:41;;;;;;;5.85;4.68;;;2.80;84.70;;;;;;5118237;28;20203;-61
2022/02/26 12:48:13;;;;;;;5.25;4.13;;;2.70;84.30;;;;;;5122766;28;20192;-61
2022/02/26 12:50:44;;;;;;;4.13;3.70;;;2.80;84.40;;;;;;5122575;28;20215;-61
2022/02/26 12:53:20;;;;;;;4.32;3.80;;;2.80;84.30;;;;;;5121958;28;20546;-61
2022/02/26 12:55:51;;;;;;;4.65;3.60;;;2.80;84.50;;;;;;5123008;28;20725;-61
2022/02/26 12:58:34;;;;;;;6.70;4.35;;;2.80;84.10;;;;;;5122262;28;20207;-62
2022/02/26 13:01:06;;;;;;;4.20;3.80;;;2.90;84.60;;;;;;5123790;28;20196;-61
2022/02/26 13:03:37;;;;;;;8.35;3.80;;;2.90;84.30;;;;;;5121439;28;20791;-61
2022/02/26 13:06:09;;;;;;;4.65;4.20;;;2.90;84.30;;;;;;5122908;28;20204;-61
2022/02/26 13:08:42;;;;;;;4.45;4.05;;;2.90;83.90;;;;;;5122475;28;20192;-61
2022/02/26 13:11:13;;;;;;;3.63;3.30;;;2.90;84.30;;;;;;5120997;28;20201;-61
2022/02/26 13:13:44;;;;;;;4.53;4.10;;;2.90;84.00;;;;;;5120516;28;20281;-61
2022/02/26 13:16:23;;;;;;;5.20;3.60;;;2.90;84.60;;;;;;5123454;28;20224;-61
2022/02/26 13:18:54;;;;;;;4.68;4.28;;;2.90;83.90;;;;;;5121258;28;20299;-61
2022/02/26 13:21:25;;;;;;;5.10;3.95;;;2.90;84.40;;;;;;5122260;28;20203;-61
2022/02/26 13:23:57;;;;;;;3.92;3.60;;;2.90;84.10;;;;;;5122120;28;20196;-61
2022/02/26 13:26:29;;;;;;;4.78;3.90;;;2.90;84.00;;;;;;5122926;28;20515;-61
2022/02/26 13:29:20;;;;;;;4.20;3.83;;;2.90;83.20;;;;;;5121148;28;20209;-61